Time;durP1;ratioP1;P1;durP2;ratioP2;P2;SDS_P1;SDS_P2;PMS_P1;PMS_P2;Temp;Humidity;BMP_temperature;BMP_pressure;BME280_temperature;BME280_humidity;BME280_pressure;Samples;Min_cycle;Max_cycle;Signal;HPM_P1;HPM_P2
2023/05/03 00:00:29;;;;;;;;;;;;;;;19.47;39.14;101584.41;103688;1290;61414;-83
2023/05/03 00:02:57;;;;;;;;;;;;;;;19.46;39.22;101585.30;103695;1286;61360;-82
2023/05/03 00:05:26;;;;;;;;;;;;;;;19.46;39.18;101580.13;103826;1284;75383;-83
2023/05/03 00:08:02;;;;;;;;;;;;;;;19.46;39.29;101582.45;103733;1289;61369;-82
2023/05/03 00:10:31;;;;;;;;;;;;;;;19.46;39.15;101582.14;103778;1286;61298;-81
2023/05/03 00:12:59;;;;;;;;;;;;;;;19.45;39.24;101586.25;103777;1286;73245;-83
2023/05/03 00:15:27;;;;;;;;;;;;;;;19.46;39.26;101584.63;103504;1285;73896;-82
2023/05/03 00:17:59;;;;;;;;;;;;;;;19.44;39.24;101585.58;103446;1291;61285;-82
2023/05/03 00:20:24;;;;;;;;;;;;;;;19.45;39.29;101584.84;103475;1289;61308;-82
2023/05/03 00:22:51;;;;;;;;;;;;;;;19.45;39.29;101581.64;103296;1288;62495;-82
2023/05/03 00:25:17;;;;;;;;;;;;;;;19.45;39.38;101584.48;103398;1289;62437;-83
2023/05/03 00:27:43;;;;;;;;;;;;;;;19.44;39.30;101582.01;103303;1288;61343;-82
2023/05/03 00:30:18;;;;;;;;;;;;;;;19.44;39.29;101582.18;103498;1289;61855;-82
2023/05/03 00:32:51;;;;;;;;;;;;;;;19.44;39.26;101580.40;103306;1287;73335;-82
2023/05/03 00:35:16;;;;;;;;;;;;;;;19.44;39.37;101584.69;103314;1294;74192;-82
2023/05/03 00:37:44;;;;;;;;;;;;;;;19.43;39.19;101589.71;103347;1289;61474;-83
2023/05/03 00:40:17;;;;;;;;;;;;;;;19.44;39.23;101591.84;103335;1289;61753;-81
2023/05/03 00:42:47;;;;;;;;;;;;;;;19.43;39.27;101590.43;103560;1289;72579;-83
2023/05/03 00:45:18;;;;;;;;;;;;;;;19.43;39.36;101587.39;103414;1294;74431;-82
2023/05/03 00:47:53;;;;;;;;;;;;;;;19.43;39.38;101594.55;103441;1293;61451;-82
2023/05/03 00:50:21;;;;;;;;;;;;;;;19.43;39.26;101590.81;103692;1285;62563;-82
2023/05/03 00:52:47;;;;;;;;;;;;;;;19.43;39.47;101589.55;103776;1285;73378;-83
2023/05/03 00:55:16;;;;;;;;;;;;;;;19.43;39.41;101592.76;103667;1286;75515;-83
2023/05/03 00:57:45;;;;;;;;;;;;;;;19.43;39.37;101594.55;103678;1285;61355;-82
2023/05/03 01:00:12;;;;;;;;;;;;;;;19.43;39.43;101601.01;103891;1286;61364;-83
2023/05/03 01:02:38;;;;;;;;;;;;;;;19.43;39.41;101603.47;103667;1286;73519;-82
2023/05/03 01:05:06;;;;;;;;;;;;;;;19.43;39.46;101599.91;103790;1285;61420;-82
2023/05/03 01:07:34;;;;;;;;;;;;;;;19.43;39.27;101599.40;103750;1286;61401;-83
2023/05/03 01:10:02;;;;;;;;;;;;;;;19.42;39.50;101601.39;103668;1291;62141;-81
2023/05/03 01:12:42;;;;;;;;;;;;;;;19.43;39.30;101600.46;103755;1286;72382;-82
2023/05/03 01:15:26;;;;;;;;;;;;;;;19.42;39.31;101598.52;103583;1286;74465;-82
2023/05/03 01:17:57;;;;;;;;;;;;;;;19.42;39.35;101600.69;103773;1286;61326;-83
2023/05/03 01:20:28;;;;;;;;;;;;;;;19.42;39.32;101598.88;104034;1286;62425;-81
2023/05/03 01:22:54;;;;;;;;;;;;;;;19.42;39.47;101597.11;103765;1286;73416;-83
2023/05/03 01:25:20;;;;;;;;;;;;;;;19.42;39.51;101599.81;103771;1288;61401;-83
2023/05/03 01:27:46;;;;;;;;;;;;;;;19.42;39.34;101599.27;103618;1286;61396;-82
2023/05/03 01:30:22;;;;;;;;;;;;;;;19.41;39.40;101598.39;103727;1286;62083;-81
2023/05/03 01:33:06;;;;;;;;;;;;;;;19.41;39.55;101601.42;103655;1290;73600;-82
2023/05/03 01:35:41;;;;;;;;;;;;;;;19.41;39.42;101606.80;103681;1288;75713;-83
2023/05/03 01:38:14;;;;;;;;;;;;;;;19.41;39.52;101607.70;103695;1286;61374;-83
2023/05/03 01:40:41;;;;;;;;;;;;;;;19.41;39.35;101609.48;103709;1286;61273;-82
2023/05/03 01:43:09;;;;;;;;;;;;;;;19.40;39.52;101605.40;103703;1287;72373;-82
2023/05/03 01:45:35;;;;;;;;;;;;;;;19.41;39.64;101606.29;103683;1290;74470;-83
2023/05/03 01:48:08;;;;;;;;;;;;;;;19.40;39.42;101605.77;103661;1286;61435;-83
2023/05/03 01:50:36;;;;;;;;;;;;;;;19.40;39.63;101604.52;103690;1285;61394;-83
2023/05/03 01:53:04;;;;;;;;;;;;;;;19.40;39.62;101602.05;103671;1285;73697;-83
2023/05/03 01:55:30;;;;;;;;;;;;;;;19.39;39.54;101599.91;103627;1286;75434;-83
2023/05/03 01:57:56;;;;;;;;;;;;;;;19.39;39.62;101600.28;103705;1286;61413;-82
2023/05/03 02:00:25;;;;;;;;;;;;;;;19.39;39.47;101600.83;103694;1286;61326;-82
2023/05/03 02:02:53;;;;;;;;;;;;;;;19.39;39.60;101597.42;103747;1286;72740;-82
2023/05/03 02:05:21;;;;;;;;;;;;;;;19.39;39.51;101594.95;103717;1286;75413;-83
2023/05/03 02:07:50;;;;;;;;;;;;;;;19.38;39.65;101594.27;103636;1284;61401;-82
2023/05/03 02:10:20;;;;;;;;;;;;;;;19.38;39.53;101594.63;103632;1286;62575;-82
2023/05/03 02:12:49;;;;;;;;;;;;;;;19.38;39.67;101595.52;103713;1288;74535;-82
2023/05/03 02:15:14;;;;;;;;;;;;;;;19.38;39.65;101593.05;103613;1285;75607;-83
2023/05/03 02:17:46;;;;;;;;;;;;;;;19.38;39.57;101593.41;103781;1288;61291;-82
2023/05/03 02:20:15;;;;;;;;;;;;;;;19.38;39.64;101593.05;103746;1285;61508;-82
2023/05/03 02:22:49;;;;;;;;;;;;;;;19.37;39.63;101594.86;103627;1285;73488;-83
2023/05/03 02:25:15;;;;;;;;;;;;;;;19.37;39.64;101591.81;103764;1284;74301;-82
2023/05/03 02:27:43;;;;;;;;;;;;;;;19.37;39.57;101593.98;103678;1290;61480;-82
2023/05/03 02:30:09;;;;;;;;;;;;;;;19.37;39.70;101590.41;103713;1286;61810;-82
2023/05/03 02:32:37;;;;;;;;;;;;;;;19.37;39.62;101593.98;103727;1286;61375;-83
2023/05/03 02:35:06;;;;;;;;;;;;;;;19.37;39.60;101592.94;103662;1286;75711;-83
2023/05/03 02:37:31;;;;;;;;;;;;;;;19.36;39.70;101596.88;103582;1287;62637;-82
2023/05/03 02:40:08;;;;;;;;;;;;;;;19.36;39.70;101599.05;103703;1286;61391;-81
2023/05/03 02:42:34;;;;;;;;;;;;;;;19.35;39.63;101603.16;103634;1285;72488;-83
2023/05/03 02:45:04;;;;;;;;;;;;;;;19.36;39.58;101600.84;103706;1289;75446;-82
2023/05/03 02:47:35;;;;;;;;;;;;;;;19.35;39.49;101596.73;103654;1289;61475;-82
2023/05/03 02:50:00;;;;;;;;;;;;;;;19.35;39.61;101597.11;103633;1286;61368;-82
2023/05/03 02:52:26;;;;;;;;;;;;;;;19.35;39.61;101596.41;103665;1289;61390;-83
2023/05/03 02:54:55;;;;;;;;;;;;;;;19.35;39.68;101594.80;103661;1285;61192;-82
2023/05/03 02:57:21;;;;;;;;;;;;;;;19.34;39.77;101593.75;103653;1285;62294;-83
2023/05/03 02:59:54;;;;;;;;;;;;;;;19.35;39.57;101591.44;103666;1286;61399;-82
2023/05/03 03:02:29;;;;;;;;;;;;;;;19.34;39.70;101593.60;103672;1285;72612;-82
2023/05/03 03:04:59;;;;;;;;;;;;;;;19.34;39.66;101598.79;103751;1288;74344;-83
2023/05/03 03:07:25;;;;;;;;;;;;;;;19.34;39.73;101601.30;103710;1286;61384;-83
2023/05/03 03:09:50;;;;;;;;;;;;;;;19.34;39.76;101598.42;103680;1286;61389;-82
2023/05/03 03:12:26;;;;;;;;;;;;;;;19.34;39.57;101603.43;103665;1286;61260;-83
2023/05/03 03:14:55;;;;;;;;;;;;;;;19.33;39.80;101599.71;103747;1288;74312;-82
2023/05/03 03:17:21;;;;;;;;;;;;;;;19.33;39.76;101595.98;103641;1285;62348;-82
2023/05/03 03:19:50;;;;;;;;;;;;;;;19.33;39.74;101599.00;103701;1286;61356;-83
2023/05/03 03:22:16;;;;;;;;;;;;;;;19.33;39.50;101600.61;103651;1285;73220;-83
2023/05/03 03:25:07;;;;;;;;;;;;;;;19.33;39.64;101606.50;103740;1285;74462;-83
2023/05/03 03:27:35;;;;;;;;;;;;;;;19.32;39.74;101605.48;103682;1284;61364;-82
2023/05/03 03:30:01;;;;;;;;;;;;;;;19.33;39.76;101598.48;103863;1285;62513;-82
2023/05/03 03:32:32;;;;;;;;;;;;;;;19.32;39.69;101597.80;103708;1286;73737;-83
2023/05/03 03:34:59;;;;;;;;;;;;;;;19.30;39.76;101596.70;103757;1284;74643;-83
2023/05/03 03:37:25;;;;;;;;;;;;;;;19.27;39.52;101603.41;103941;1285;61295;-82
2023/05/03 03:39:53;;;;;;;;;;;;;;;19.26;39.60;101606.32;103948;1291;61347;-82
2023/05/03 03:42:22;;;;;;;;;;;;;;;19.24;39.58;101606.92;103731;1286;73451;-82
2023/05/03 03:44:51;;;;;;;;;;;;;;;19.23;39.41;101604.84;103750;1286;73555;-83
2023/05/03 03:47:17;;;;;;;;;;;;;;;19.22;39.48;101606.87;103682;1286;61275;-83
2023/05/03 03:49:43;;;;;;;;;;;;;;;19.22;39.35;101608.15;103575;1289;61387;-83
2023/05/03 03:52:26;;;;;;;;;;;;;;;19.21;39.29;101607.46;103654;1286;73384;-84
2023/05/03 03:55:01;;;;;;;;;;;;;;;19.21;39.16;101606.23;103615;1286;73699;-83
2023/05/03 03:57:35;;;;;;;;;;;;;;;19.20;39.34;101609.13;103762;1285;62465;-83
2023/05/03 04:00:10;;;;;;;;;;;;;;;19.20;39.04;101611.45;103653;1285;61345;-84
2023/05/03 04:02:36;;;;;;;;;;;;;;;19.19;39.23;101610.40;103660;1286;72252;-84
2023/05/03 04:05:02;;;;;;;;;;;;;;;19.19;39.21;101609.15;103748;1286;62731;-83
2023/05/03 04:07:29;;;;;;;;;;;;;;;19.18;39.26;101611.55;103583;1286;61677;-83
2023/05/03 04:09:58;;;;;;;;;;;;;;;19.18;39.15;101609.40;103798;1286;61285;-85
2023/05/03 04:12:24;;;;;;;;;;;;;;;19.18;39.04;101612.08;103762;1286;62105;-84
2023/05/03 04:14:55;;;;;;;;;;;;;;;19.18;38.91;101612.95;103757;1286;74208;-83
2023/05/03 04:17:21;;;;;;;;;;;;;;;19.19;39.17;101607.59;103839;1288;61267;-84
2023/05/03 04:19:54;;;;;;;;;;;;;;;19.19;39.10;101611.99;103780;1286;61356;-83
2023/05/03 04:22:20;;;;;;;;;;;;;;;19.18;39.19;101617.23;103805;1286;61391;-83
2023/05/03 04:24:55;;;;;;;;;;;;;;;19.15;39.13;101611.87;104183;1288;74190;-84
2023/05/03 04:27:22;;;;;;;;;;;;;;;19.14;39.06;101610.34;104094;1286;61794;-83
2023/05/03 04:29:47;;;;;;;;;;;;;;;19.11;38.98;101614.02;104112;1286;61394;-83
2023/05/03 04:32:16;;;;;;;;;;;;;;;19.08;38.94;101618.83;104258;1284;72429;-82
2023/05/03 04:34:42;;;;;;;;;;;;;;;19.06;38.97;101627.30;104159;1285;61371;-82
2023/05/03 04:37:08;;;;;;;;;;;;;;;19.04;38.99;101634.90;103901;1286;61324;-83
2023/05/03 04:39:36;;;;;;;;;;;;;;;18.97;38.91;101642.92;104158;1286;61593;-83
2023/05/03 04:42:01;;;;;;;;;;;;;;;18.91;39.01;101650.70;104518;1290;61318;-82
2023/05/03 04:44:29;;;;;;;;;;;;;;;18.86;39.02;101654.80;104727;1286;61361;-82
2023/05/03 04:46:55;;;;;;;;;;;;;;;18.84;39.05;101662.95;104600;1286;61231;-82
2023/05/03 04:49:21;;;;;;;;;;;;;;;18.82;39.04;101666.63;104996;1285;61146;-83
2023/05/03 04:51:47;;;;;;;;;;;;;;;18.81;39.14;101666.13;104977;1285;61243;-81
2023/05/03 04:54:13;;;;;;;;;;;;;;;18.78;39.01;101660.94;104718;1286;61339;-81
2023/05/03 04:56:38;;;;;;;;;;;;;;;18.65;38.93;101660.12;104819;1286;61292;-83
2023/05/03 04:59:04;;;;;;;;;;;;;;;18.49;39.19;101664.09;105476;1285;61288;-82
2023/05/03 05:01:29;;;;;;;;;;;;;;;18.41;39.14;101668.53;105442;1285;59717;-82
2023/05/03 05:03:56;;;;;;;;;;;;;;;18.37;39.38;101681.17;105678;1284;72570;-82
2023/05/03 05:06:22;;;;;;;;;;;;;;;18.38;39.49;101682.73;105414;1286;75618;-82
2023/05/03 05:08:49;;;;;;;;;;;;;;;18.42;39.51;101680.77;105618;1286;61858;-82
2023/05/03 05:11:14;;;;;;;;;;;;;;;18.48;39.51;101687.65;105886;1288;59815;-82
2023/05/03 05:13:41;;;;;;;;;;;;;;;18.52;39.62;101685.99;105385;1286;60918;-82
2023/05/03 05:16:06;;;;;;;;;;;;;;;18.56;39.48;101681.90;105480;1290;61266;-82
2023/05/03 05:18:33;;;;;;;;;;;;;;;18.60;39.55;101683.87;105571;1286;59342;-82
2023/05/03 05:20:59;;;;;;;;;;;;;;;18.63;39.48;101687.47;105559;1290;61157;-82
2023/05/03 05:23:24;;;;;;;;;;;;;;;18.66;39.58;101685.20;105276;1286;61387;-82
2023/05/03 05:25:52;;;;;;;;;;;;;;;18.68;39.38;101682.96;105454;1288;61330;-82
2023/05/03 05:28:18;;;;;;;;;;;;;;;18.64;39.45;101683.14;105436;1284;61394;-82
2023/05/03 05:30:44;;;;;;;;;;;;;;;18.66;39.39;101681.80;105141;1286;59962;-81
2023/05/03 05:33:09;;;;;;;;;;;;;;;18.70;39.59;101681.27;105100;1286;61279;-81
2023/05/03 05:35:35;;;;;;;;;;;;;;;18.74;39.65;101675.92;105398;1286;74624;-81
2023/05/03 05:38:00;;;;;;;;;;;;;;;18.77;39.56;101680.02;105438;1285;61426;-82
2023/05/03 05:40:26;;;;;;;;;;;;;;;18.74;39.43;101679.09;105404;1285;61358;-81
2023/05/03 05:42:53;;;;;;;;;;;;;;;18.71;39.57;101675.67;105429;1286;60140;-81
2023/05/03 05:45:18;;;;;;;;;;;;;;;18.70;39.48;101673.77;104942;1288;59366;-81
2023/05/03 05:47:44;;;;;;;;;;;;;;;18.72;39.62;101665.86;105186;1288;61019;-81
2023/05/03 05:50:10;;;;;;;;;;;;;;;18.67;39.54;101663.05;105301;1289;59332;-82
2023/05/03 05:52:36;;;;;;;;;;;;;;;18.57;39.52;101661.20;105657;1288;61187;-81
2023/05/03 05:55:01;;;;;;;;;;;;;;;18.39;39.67;101665.41;105819;1285;61294;-82
2023/05/03 05:57:27;;;;;;;;;;;;;;;18.18;39.60;101666.70;105906;1286;60311;-81
2023/05/03 05:59:52;;;;;;;;;;;;;;;17.85;39.82;101663.69;105521;1286;61387;-81
2023/05/03 06:02:22;;;;;;;;;;;;;;;17.69;40.10;101659.77;105664;1291;59929;-81
2023/05/03 06:04:47;;;;;;;;;;;;;;;17.66;40.38;101660.80;105504;1291;60557;-81
2023/05/03 06:07:13;;;;;;;;;;;;;;;17.66;40.43;101658.64;105639;1286;59630;-82
2023/05/03 06:09:39;;;;;;;;;;;;;;;17.63;40.55;101656.80;105628;1288;61286;-81
2023/05/03 06:12:06;;;;;;;;;;;;;;;17.73;40.62;101658.31;105363;1286;61179;-81
2023/05/03 06:14:32;;;;;;;;;;;;;;;17.87;40.71;101655.92;105234;1284;59618;-81
2023/05/03 06:16:59;;;;;;;;;;;;;;;18.01;40.51;101659.82;105465;1286;61021;-81
2023/05/03 06:19:25;;;;;;;;;;;;;;;18.13;40.49;101659.12;105706;1286;61257;-82
2023/05/03 06:21:51;;;;;;;;;;;;;;;18.23;40.44;101659.52;105352;1285;59762;-81
2023/05/03 06:24:19;;;;;;;;;;;;;;;18.33;40.44;101661.42;105196;1286;59778;-81
2023/05/03 06:26:49;;;;;;;;;;;;;;;18.35;40.46;101668.09;105217;1285;59423;-82
2023/05/03 06:29:15;;;;;;;;;;;;;;;18.38;40.38;101671.20;105156;1288;72485;-81
2023/05/03 06:31:40;;;;;;;;;;;;;;;18.39;40.44;101663.83;105036;1286;61292;-82
2023/05/03 06:34:08;;;;;;;;;;;;;;;18.41;40.32;101654.96;105182;1286;62563;-81
2023/05/03 06:36:34;;;;;;;;;;;;;;;18.48;40.24;101660.20;105575;1288;61380;-81
2023/05/03 06:39:02;;;;;;;;;;;;;;;18.53;40.30;101659.23;105178;1286;60873;-81
2023/05/03 06:41:29;;;;;;;;;;;;;;;18.55;40.23;101657.34;105181;1286;75284;-82
2023/05/03 06:43:54;;;;;;;;;;;;;;;18.60;40.41;101665.50;105339;1289;60565;-82
2023/05/03 06:46:20;;;;;;;;;;;;;;;18.62;40.26;101667.02;105619;1286;61360;-82
2023/05/03 06:48:45;;;;;;;;;;;;;;;18.63;40.30;101670.35;105510;1288;61266;-81
2023/05/03 06:51:11;;;;;;;;;;;;;;;18.65;40.14;101670.81;105575;1287;61278;-81
2023/05/03 06:53:36;;;;;;;;;;;;;;;18.66;40.12;101676.48;105774;1286;61346;-82
2023/05/03 06:56:02;;;;;;;;;;;;;;;18.52;40.08;101683.70;105603;1286;61364;-82
2023/05/03 06:58:28;;;;;;;;;;;;;;;18.42;40.23;101688.61;105638;1286;59804;-81
2023/05/03 07:00:53;;;;;;;;;;;;;;;18.44;40.38;101691.02;105778;1286;61381;-81
2023/05/03 07:03:19;;;;;;;;;;;;;;;18.51;40.67;101690.52;105779;1285;61303;-81
2023/05/03 07:05:45;;;;;;;;;;;;;;;18.57;40.78;101690.75;105176;1286;629551;-81
2023/05/03 07:08:11;;;;;;;;;;;;;;;18.59;40.71;101687.83;105464;1289;61314;-83
2023/05/03 07:10:37;;;;;;;;;;;;;;;18.54;40.58;101688.98;105658;1285;63511;-81
2023/05/03 07:13:02;;;;;;;;;;;;;;;18.41;40.62;101693.65;105543;1286;61349;-82
2023/05/03 07:15:28;;;;;;;;;;;;;;;18.32;40.85;101692.80;105863;1291;59924;-80
2023/05/03 07:17:53;;;;;;;;;;;;;;;18.34;40.80;101693.06;105792;1285;61304;-81
2023/05/03 07:20:20;;;;;;;;;;;;;;;18.35;40.92;101696.97;105787;1286;59752;-81
2023/05/03 07:22:46;;;;;;;;;;;;;;;18.41;40.90;101689.55;105770;1284;59674;-81
2023/05/03 07:25:13;;;;;;;;;;;;;;;18.47;40.94;101684.33;105690;1291;60775;-81
2023/05/03 07:27:38;;;;;;;;;;;;;;;18.51;40.96;101687.15;105520;1286;59393;-82
2023/05/03 07:30:04;;;;;;;;;;;;;;;18.54;40.98;101692.19;105618;1284;61371;-81
2023/05/03 07:32:30;;;;;;;;;;;;;;;18.52;40.93;101699.41;105361;1286;61417;-82
2023/05/03 07:34:56;;;;;;;;;;;;;;;18.39;40.85;101701.95;105394;1291;59919;-82
2023/05/03 07:37:22;;;;;;;;;;;;;;;18.26;41.21;101703.42;105488;1291;61288;-82
2023/05/03 07:39:48;;;;;;;;;;;;;;;18.19;41.21;101701.41;105351;1286;60905;-83
2023/05/03 07:42:13;;;;;;;;;;;;;;;18.22;41.27;101705.73;105579;1285;60439;-81
2023/05/03 07:44:38;;;;;;;;;;;;;;;18.30;41.23;101708.77;105448;1286;60196;-81
2023/05/03 07:47:04;;;;;;;;;;;;;;;18.39;41.48;101703.02;105426;1290;72941;-82
2023/05/03 07:49:30;;;;;;;;;;;;;;;18.49;41.31;101707.55;105436;1285;61658;-81
2023/05/03 07:51:57;;;;;;;;;;;;;;;18.55;41.31;101699.06;105496;1287;61241;-81
2023/05/03 07:54:22;;;;;;;;;;;;;;;18.62;41.21;101699.63;105783;1285;59844;-82
2023/05/03 07:56:48;;;;;;;;;;;;;;;18.65;41.22;101700.24;105736;1286;59649;-82
2023/05/03 07:59:13;;;;;;;;;;;;;;;18.63;41.17;101699.79;105723;1285;61320;-81
2023/05/03 08:01:40;;;;;;;;;;;;;;;18.53;41.15;101698.64;105793;1288;61438;-82
2023/05/03 08:04:05;;;;;;;;;;;;;;;18.45;41.33;101705.05;105685;1286;59852;-82
2023/05/03 08:06:31;;;;;;;;;;;;;;;18.34;41.37;101708.94;105842;1286;59990;-82
2023/05/03 08:08:58;;;;;;;;;;;;;;;18.22;41.31;101719.08;105617;1285;61409;-82
2023/05/03 08:11:25;;;;;;;;;;;;;;;18.05;41.40;101725.17;106162;1290;60037;-82
2023/05/03 08:13:51;;;;;;;;;;;;;;;17.99;41.57;101730.78;105692;1289;59716;-82
2023/05/03 08:16:16;;;;;;;;;;;;;;;18.04;41.81;101733.25;105697;1287;59376;-83
2023/05/03 08:18:42;;;;;;;;;;;;;;;18.09;41.81;101736.21;105505;1286;61233;-82
2023/05/03 08:21:09;;;;;;;;;;;;;;;18.19;41.76;101739.19;105749;1288;61304;-82
2023/05/03 08:23:35;;;;;;;;;;;;;;;18.29;41.73;101736.27;105773;1286;59693;-82
2023/05/03 08:26:03;;;;;;;;;;;;;;;18.38;41.82;101734.24;105728;1286;61272;-81
2023/05/03 08:28:29;;;;;;;;;;;;;;;18.42;41.76;101735.50;105598;1286;61340;-82
2023/05/03 08:30:55;;;;;;;;;;;;;;;18.46;41.70;101733.92;105439;1286;60869;-82
2023/05/03 08:33:21;;;;;;;;;;;;;;;18.43;41.73;101727.80;105624;1290;61273;-82
2023/05/03 08:35:46;;;;;;;;;;;;;;;18.36;41.67;101721.34;105390;1290;61260;-82
2023/05/03 08:38:12;;;;;;;;;;;;;;;18.29;41.75;101719.71;105558;1291;61329;-82
2023/05/03 08:40:39;;;;;;;;;;;;;;;18.27;42.01;101717.98;105409;1285;73492;-83
2023/05/03 08:43:08;;;;;;;;;;;;;;;18.28;41.88;101719.89;105259;1291;61371;-83
2023/05/03 08:45:34;;;;;;;;;;;;;;;18.24;41.72;101719.02;105459;1285;61285;-82
2023/05/03 08:48:03;;;;;;;;;;;;;;;18.18;41.87;101718.57;105147;1291;61309;-82
2023/05/03 08:50:28;;;;;;;;;;;;;;;18.15;41.92;101716.02;105594;1288;72440;-82
2023/05/03 08:52:54;;;;;;;;;;;;;;;18.12;41.93;101713.30;105520;1292;62206;-82
2023/05/03 08:55:19;;;;;;;;;;;;;;;17.99;42.05;101712.45;105661;1289;61352;-82
2023/05/03 08:57:45;;;;;;;;;;;;;;;17.94;42.22;101709.81;105703;1286;59745;-82
2023/05/03 09:00:11;;;;;;;;;;;;;;;17.89;42.25;101699.67;105586;1288;60555;-82
2023/05/03 09:02:40;;;;;;;;;;;;;;;17.86;42.18;101697.13;105657;1286;61325;-83
2023/05/03 09:05:15;;;;;;;;;;;;;;;17.82;42.33;101692.48;105710;1285;75707;-84
2023/05/03 09:08:00;;;;;;;;;;;;;;;17.84;42.32;101694.19;105676;1288;61154;-82
2023/05/03 09:10:26;;;;;;;;;;;;;;;17.91;42.36;101694.41;105827;1285;61085;-82
2023/05/03 09:12:51;;;;;;;;;;;;;;;17.94;42.30;101689.85;105511;1288;59959;-83
2023/05/03 09:15:20;;;;;;;;;;;;;;;17.93;42.51;101686.52;105506;1292;61452;-82
2023/05/03 09:18:05;;;;;;;;;;;;;;;17.98;42.55;101685.44;105507;1291;61166;-82
2023/05/03 09:20:34;;;;;;;;;;;;;;;18.08;42.64;101681.61;105322;1286;60738;-81
2023/05/03 09:23:00;;;;;;;;;;;;;;;18.20;42.60;101683.92;105442;1286;72690;-84
2023/05/03 09:25:38;;;;;;;;;;;;;;;18.32;42.57;101687.30;105327;1286;74375;-82
2023/05/03 09:28:04;;;;;;;;;;;;;;;18.41;42.55;101678.68;105450;1289;61100;-81
2023/05/03 09:30:30;;;;;;;;;;;;;;;18.42;42.32;101669.54;105569;1286;61289;-82
2023/05/03 09:32:55;;;;;;;;;;;;;;;18.44;42.49;101663.58;105656;1289;61407;-82
2023/05/03 09:35:21;;;;;;;;;;;;;;;18.46;42.37;101655.48;105511;1289;61301;-82
2023/05/03 09:37:46;;;;;;;;;;;;;;;18.48;42.28;101650.05;105243;1285;61129;-85
2023/05/03 09:40:17;;;;;;;;;;;;;;;18.51;42.49;101653.08;105197;1284;61368;-82
2023/05/03 09:43:02;;;;;;;;;;;;;;;18.59;42.51;101654.33;105372;1290;61250;-82
2023/05/03 09:45:27;;;;;;;;;;;;;;;18.67;42.42;101656.45;105222;1287;73558;-82
2023/05/03 09:47:54;;;;;;;;;;;;;;;18.74;42.46;101656.84;105059;1286;61968;-82
2023/05/03 09:50:20;;;;;;;;;;;;;;;18.78;42.34;101659.50;105248;1288;61186;-82
2023/05/03 09:52:46;;;;;;;;;;;;;;;18.81;42.35;101659.71;105171;1285;61358;-81
2023/05/03 09:55:12;;;;;;;;;;;;;;;18.78;42.24;101657.91;105252;1285;59275;-81
2023/05/03 09:57:37;;;;;;;;;;;;;;;18.68;42.15;101652.50;104894;1286;61358;-82
2023/05/03 10:00:03;;;;;;;;;;;;;;;18.62;42.31;101643.85;105268;1286;61279;-81
2023/05/03 10:02:29;;;;;;;;;;;;;;;18.58;42.14;101639.58;105525;1286;61323;-81
2023/05/03 10:04:58;;;;;;;;;;;;;;;18.52;42.30;101637.17;105743;1286;61131;-82
2023/05/03 10:07:25;;;;;;;;;;;;;;;18.46;42.33;101639.41;105690;1286;75258;-82
2023/05/03 10:09:50;;;;;;;;;;;;;;;18.41;42.28;101633.77;105682;1286;74556;-83
2023/05/03 10:12:16;;;;;;;;;;;;;;;18.40;42.67;101630.27;105910;1285;61271;-83
2023/05/03 10:14:46;;;;;;;;;;;;;;;18.44;42.59;101624.19;105798;1285;59641;-82
2023/05/03 10:17:16;;;;;;;;;;;;;;;18.50;42.67;101618.05;105721;1287;72721;-82
2023/05/03 10:20:06;;;;;;;;;;;;;;;18.55;42.54;101622.25;105872;1288;74982;-83
2023/05/03 10:22:31;;;;;;;;;;;;;;;18.59;42.49;101626.52;105268;1286;59949;-83
2023/05/03 10:25:00;;;;;;;;;;;;;;;18.61;42.66;101633.75;105070;1291;61410;-83
2023/05/03 10:27:41;;;;;;;;;;;;;;;18.64;42.51;101628.25;105418;1286;73649;-83
2023/05/03 10:30:08;;;;;;;;;;;;;;;18.69;42.70;101622.98;105631;1286;75424;-82
2023/05/03 10:32:35;;;;;;;;;;;;;;;18.68;42.64;101630.56;105232;1285;61279;-82
2023/05/03 10:35:09;;;;;;;;;;;;;;;18.64;42.66;101627.36;105097;1285;61319;-82
2023/05/03 10:37:35;;;;;;;;;;;;;;;18.65;42.66;101618.90;105182;1289;72512;-82
2023/05/03 10:40:09;;;;;;;;;;;;;;;18.70;42.75;101620.83;105214;1286;61464;-83
2023/05/03 10:42:35;;;;;;;;;;;;;;;18.73;42.71;101612.64;105298;1285;61150;-82
2023/05/03 10:45:02;;;;;;;;;;;;;;;18.78;42.88;101616.16;105215;1286;61238;-83
2023/05/03 10:47:29;;;;;;;;;;;;;;;18.80;42.89;101618.04;104997;1292;74417;-83
2023/05/03 10:50:13;;;;;;;;;;;;;;;18.79;42.83;101608.77;105197;1285;74191;-82
2023/05/03 10:52:41;;;;;;;;;;;;;;;18.81;43.00;101611.58;105599;1285;61186;-83
2023/05/03 10:55:11;;;;;;;;;;;;;;;18.83;42.85;101608.94;105587;1289;61414;-83
2023/05/03 10:57:38;;;;;;;;;;;;;;;18.83;42.82;101603.61;105717;1286;73483;-82
2023/05/03 11:00:11;;;;;;;;;;;;;;;18.81;42.94;101605.86;105364;1291;74885;-81
2023/05/03 11:02:37;;;;;;;;;;;;;;;18.82;43.02;101603.64;105542;1285;61179;-83
2023/05/03 11:05:04;;;;;;;;;;;;;;;18.82;42.96;101602.95;105775;1286;63483;-81
2023/05/03 11:07:30;;;;;;;;;;;;;;;18.81;42.86;101597.66;105657;1286;73419;-82
2023/05/03 11:09:56;;;;;;;;;;;;;;;18.86;43.23;101597.05;105599;1289;75167;-82
2023/05/03 11:12:21;;;;;;;;;;;;;;;18.89;43.16;101591.56;105618;1285;59877;-81
2023/05/03 11:14:49;;;;;;;;;;;;;;;18.87;43.02;101581.85;105453;1286;61361;-82
2023/05/03 11:17:14;;;;;;;;;;;;;;;18.87;43.07;101573.63;105481;1285;59416;-81
2023/05/03 11:19:40;;;;;;;;;;;;;;;18.90;43.21;101571.73;105514;1288;61423;-81
2023/05/03 11:22:06;;;;;;;;;;;;;;;18.95;43.25;101565.61;105633;1285;59625;-82
2023/05/03 11:24:32;;;;;;;;;;;;;;;19.00;43.14;101568.00;105636;1288;61311;-82
2023/05/03 11:26:58;;;;;;;;;;;;;;;19.05;43.22;101571.13;105277;1285;59730;-81
2023/05/03 11:29:24;;;;;;;;;;;;;;;19.08;43.27;101572.27;105210;1288;61894;-81
2023/05/03 11:31:51;;;;;;;;;;;;;;;19.12;43.23;101572.27;105078;1286;75199;-82
2023/05/03 11:34:17;;;;;;;;;;;;;;;19.15;43.24;101566.91;105341;1285;61289;-81
2023/05/03 11:36:42;;;;;;;;;;;;;;;19.19;43.19;101564.38;105470;1285;61259;-81
2023/05/03 11:39:08;;;;;;;;;;;;;;;19.21;43.20;101564.44;105412;1289;61904;-82
2023/05/03 11:41:34;;;;;;;;;;;;;;;19.23;43.12;101556.16;105482;1289;61256;-81
2023/05/03 11:44:00;;;;;;;;;;;;;;;19.26;43.09;101557.98;105606;1286;59699;-80
2023/05/03 11:46:26;;;;;;;;;;;;;;;19.29;43.18;101554.45;105462;1286;59629;-81
2023/05/03 11:48:52;;;;;;;;;;;;;;;19.31;43.05;101545.20;105347;1286;59726;-81
2023/05/03 11:51:21;;;;;;;;;;;;;;;19.32;43.06;101540.17;105534;1285;61370;-81
2023/05/03 11:53:47;;;;;;;;;;;;;;;19.32;43.18;101542.48;105495;1285;75676;-81
2023/05/03 11:56:14;;;;;;;;;;;;;;;19.30;42.94;101542.05;105764;1286;61262;-82
2023/05/03 11:58:48;;;;;;;;;;;;;;;19.27;42.75;101541.16;105412;1288;59827;-81
2023/05/03 12:01:15;;;;;;;;;;;;;;;19.21;42.63;101537.88;105635;1286;73479;-81
2023/05/03 12:03:40;;;;;;;;;;;;;;;19.16;42.67;101532.95;105759;1286;71674;-80
2023/05/03 12:06:06;;;;;;;;;;;;;;;19.15;42.53;101526.02;105787;1291;61438;-81
2023/05/03 12:08:32;;;;;;;;;;;;;;;19.15;42.49;101524.63;105601;1285;59670;-81
2023/05/03 12:11:01;;;;;;;;;;;;;;;19.09;42.36;101521.86;105958;1286;59716;-81
2023/05/03 12:13:27;;;;;;;;;;;;;;;19.00;42.22;101518.25;105054;1285;61263;-81
2023/05/03 12:15:58;;;;;;;;;;;;;;;18.99;42.21;101514.39;105168;1286;59743;-81
2023/05/03 12:18:23;;;;;;;;;;;;;;;19.02;42.08;101513.30;105019;1285;61327;-81
2023/05/03 12:20:53;;;;;;;;;;;;;;;19.07;42.24;101515.77;105068;1290;61253;-81
2023/05/03 12:23:19;;;;;;;;;;;;;;;19.11;42.15;101507.52;104699;1288;75383;-81
2023/05/03 12:25:46;;;;;;;;;;;;;;;19.14;42.16;101507.36;104628;1286;61261;-81
2023/05/03 12:28:12;;;;;;;;;;;;;;;19.17;42.23;101504.15;104623;1286;61400;-81